createdAt,value
2017-10-16T00:00:12.731Z,17.62
2017-10-16T00:02:40.352Z,16.98
2017-10-16T00:05:07.991Z,18.23
2017-10-16T00:07:35.583Z,17.65
2017-10-16T00:10:03.200Z,17.58
2017-10-16T00:12:30.854Z,16.98
2017-10-16T00:14:58.427Z,15.90
2017-10-16T00:17:26.038Z,15.80
2017-10-16T00:19:53.615Z,16.40
2017-10-16T00:22:21.230Z,13.85
2017-10-16T00:24:48.809Z,13.65
2017-10-16T00:27:16.429Z,16.98
2017-10-16T00:29:44.006Z,15.20
2017-10-16T00:32:11.615Z,16.02
2017-10-16T00:34:40.044Z,14.85
2017-10-16T00:37:07.688Z,15.45
2017-10-16T00:39:35.341Z,16.02
2017-10-16T00:42:02.950Z,16.90
2017-10-16T00:44:30.523Z,16.23
2017-10-16T00:46:58.138Z,15.60
2017-10-16T00:49:25.713Z,14.40
2017-10-16T00:51:53.285Z,14.35
2017-10-16T00:54:20.900Z,15.65
2017-10-16T00:56:48.563Z,16.02
2017-10-16T00:59:16.203Z,14.43
2017-10-16T01:01:43.819Z,15.13
2017-10-16T01:04:11.438Z,13.52
2017-10-16T01:06:39.029Z,15.05
2017-10-16T01:09:06.615Z,14.20
2017-10-16T01:11:34.421Z,14.95
2017-10-16T01:14:02.047Z,15.25
2017-10-16T01:16:29.671Z,14.10
2017-10-16T01:18:57.295Z,14.70
2017-10-16T01:21:25.721Z,13.60
2017-10-16T01:23:53.321Z,14.70
2017-10-16T01:26:20.958Z,12.65
2017-10-16T01:28:48.602Z,12.70
2017-10-16T01:31:16.235Z,13.62
2017-10-16T01:33:43.906Z,12.95
2017-10-16T01:36:11.543Z,13.68
2017-10-16T01:38:39.136Z,12.55
2017-10-16T01:41:06.771Z,12.77
2017-10-16T01:43:34.410Z,12.00
2017-10-16T01:46:02.056Z,12.27
2017-10-16T01:48:29.647Z,14.90
2017-10-16T01:50:57.234Z,14.32
2017-10-16T01:53:24.904Z,13.75
2017-10-16T01:55:52.558Z,14.15
2017-10-16T01:58:20.196Z,14.55
2017-10-16T02:00:47.929Z,13.93
2017-10-16T02:03:15.542Z,14.80
2017-10-16T02:05:43.191Z,12.80
2017-10-16T02:08:10.809Z,13.48
2017-10-16T02:10:38.478Z,12.82
2017-10-16T02:13:06.051Z,12.90
2017-10-16T02:15:33.628Z,13.05
2017-10-16T02:18:01.216Z,14.13
2017-10-16T02:20:28.822Z,13.75
2017-10-16T02:22:56.494Z,13.82
2017-10-16T02:25:24.111Z,14.20
2017-10-16T02:27:51.728Z,13.70
2017-10-16T02:30:19.338Z,16.05
2017-10-16T02:32:46.947Z,14.13
2017-10-16T02:35:14.571Z,14.50
2017-10-16T02:37:42.141Z,14.82
2017-10-16T02:40:09.754Z,15.75
2017-10-16T02:42:37.374Z,14.98
2017-10-16T02:45:04.994Z,17.05
2017-10-16T02:47:32.607Z,16.20
2017-10-16T02:50:00.260Z,16.85
2017-10-16T02:52:27.875Z,15.45
2017-10-16T02:54:55.487Z,16.20
2017-10-16T02:57:23.063Z,16.37
2017-10-16T02:59:51.047Z,15.73
2017-10-16T03:02:19.423Z,16.98
2017-10-16T03:04:47.810Z,15.75
2017-10-16T03:07:16.190Z,16.48
2017-10-16T03:09:43.869Z,15.68
2017-10-16T03:12:11.484Z,16.55
2017-10-16T03:14:39.057Z,16.10
2017-10-16T03:17:06.711Z,16.10
2017-10-16T03:19:34.322Z,15.55
2017-10-16T03:22:01.946Z,16.33
2017-10-16T03:24:29.563Z,14.73
2017-10-16T03:26:57.174Z,15.98
2017-10-16T03:29:24.804Z,14.75
2017-10-16T03:31:52.415Z,15.05
2017-10-16T03:34:20.027Z,16.12
2017-10-16T03:36:47.646Z,15.60
2017-10-16T03:39:15.260Z,15.05
2017-10-16T03:41:42.835Z,16.30
2017-10-16T03:44:10.444Z,15.90
2017-10-16T03:46:38.058Z,16.42
2017-10-16T03:49:05.681Z,16.05
2017-10-16T03:51:33.259Z,16.77
2017-10-16T03:54:00.870Z,17.02
2017-10-16T03:56:28.448Z,17.87
2017-10-16T03:58:56.058Z,17.55
2017-10-16T04:01:23.678Z,17.98
2017-10-16T04:03:51.290Z,19.02
2017-10-16T04:06:18.916Z,17.92
2017-10-16T04:08:46.530Z,17.83
2017-10-16T04:11:14.138Z,18.27
2017-10-16T04:13:41.750Z,19.20
2017-10-16T04:16:09.372Z,17.10
2017-10-16T04:18:36.983Z,17.40
2017-10-16T04:21:04.607Z,18.10
2017-10-16T04:23:32.227Z,18.27
2017-10-16T04:25:59.844Z,17.87
2017-10-16T04:28:27.457Z,17.15
2017-10-16T04:30:55.079Z,17.85
2017-10-16T04:33:22.696Z,19.60
2017-10-16T04:35:50.352Z,17.75
2017-10-16T04:38:17.970Z,17.98
2017-10-16T04:40:45.584Z,18.75
2017-10-16T04:43:13.201Z,19.15
2017-10-16T04:45:40.810Z,18.33
2017-10-16T04:48:08.380Z,20.40
2017-10-16T04:50:36.750Z,19.45
2017-10-16T04:53:04.324Z,19.67
2017-10-16T04:55:31.934Z,19.45
2017-10-16T04:57:59.547Z,20.30
2017-10-16T05:00:27.155Z,19.58
2017-10-16T05:02:54.764Z,20.65
2017-10-16T05:05:22.375Z,21.30
2017-10-16T05:07:49.983Z,20.73
2017-10-16T05:10:17.605Z,19.85
2017-10-16T05:12:45.214Z,20.83
2017-10-16T05:15:12.830Z,19.65
2017-10-16T05:17:40.470Z,19.65
2017-10-16T05:20:08.079Z,20.73
2017-10-16T05:22:35.730Z,20.58
2017-10-16T05:25:03.349Z,21.35
2017-10-16T05:27:30.928Z,21.83
2017-10-16T05:29:58.570Z,22.25
2017-10-16T05:32:26.189Z,22.60
2017-10-16T05:34:53.811Z,22.37
2017-10-16T05:37:21.422Z,22.37
2017-10-16T05:39:49.031Z,24.25
2017-10-16T05:42:16.617Z,24.15
2017-10-16T05:44:44.257Z,23.90
2017-10-16T05:47:11.895Z,25.08
2017-10-16T05:49:39.527Z,23.17
2017-10-16T05:52:07.139Z,23.55
2017-10-16T05:54:34.754Z,24.48
2017-10-16T05:57:03.143Z,20.80
2017-10-16T05:59:30.777Z,21.55
2017-10-16T06:01:59.174Z,24.00
2017-10-16T06:04:27.552Z,24.25
2017-10-16T06:06:55.955Z,21.70
2017-10-16T06:09:23.583Z,22.50
2017-10-16T06:11:51.152Z,20.45
2017-10-16T06:14:19.542Z,23.90
2017-10-16T06:16:48.051Z,22.92
2017-10-16T06:19:15.688Z,22.13
2017-10-16T06:21:43.332Z,23.05
2017-10-16T06:24:10.986Z,22.33
2017-10-16T06:26:38.595Z,24.17
2017-10-16T06:29:06.145Z,23.02
2017-10-16T06:31:33.691Z,23.65
2017-10-16T06:34:01.340Z,21.50
2017-10-16T06:36:29.827Z,22.60
2017-10-16T06:38:57.476Z,21.48
2017-10-16T06:41:25.915Z,22.40
2017-10-16T06:43:53.527Z,22.48
2017-10-16T06:46:21.109Z,22.55
2017-10-16T06:48:48.722Z,23.12
2017-10-16T06:51:16.331Z,22.55
2017-10-16T06:53:43.947Z,21.62
2017-10-16T06:56:11.558Z,21.75
2017-10-16T06:58:39.282Z,23.12
2017-10-16T07:01:06.897Z,23.40
2017-10-16T07:03:34.552Z,23.35
2017-10-16T07:06:02.124Z,22.45
2017-10-16T07:08:29.735Z,23.05
2017-10-16T07:10:58.106Z,22.73
2017-10-16T07:13:25.719Z,22.70
2017-10-16T07:15:53.295Z,19.83
2017-10-16T07:18:20.913Z,19.70
2017-10-16T07:20:48.522Z,20.80
2017-10-16T07:23:16.134Z,19.50
2017-10-16T07:25:43.743Z,19.05
2017-10-16T07:28:11.395Z,20.42
2017-10-16T07:30:39.003Z,18.62
2017-10-16T07:33:07.394Z,18.52
2017-10-16T07:35:35.734Z,18.42
2017-10-16T07:38:03.359Z,17.73
2017-10-16T07:40:31.034Z,18.60
2017-10-16T07:42:58.658Z,17.95
2017-10-16T07:45:26.271Z,17.20
2017-10-16T07:47:53.842Z,16.98
2017-10-16T07:50:21.470Z,16.85
2017-10-16T07:52:49.049Z,17.50
2017-10-16T07:55:16.622Z,18.15
2017-10-16T07:57:44.230Z,16.85
2017-10-16T08:00:11.838Z,16.85
2017-10-16T08:02:39.457Z,17.40
2017-10-16T08:05:07.062Z,16.80
2017-10-16T08:07:34.808Z,16.25
2017-10-16T08:10:02.462Z,17.08
2017-10-16T08:12:30.033Z,16.85
2017-10-16T08:14:57.678Z,17.15
2017-10-16T08:17:25.303Z,15.85
2017-10-16T08:19:53.682Z,16.90
2017-10-16T08:22:22.083Z,16.83
2017-10-16T08:24:49.827Z,15.63
2017-10-16T08:27:18.232Z,14.93
2017-10-16T08:29:45.863Z,16.23
2017-10-16T08:32:13.486Z,15.68
2017-10-16T08:34:41.154Z,16.30
2017-10-16T08:37:08.800Z,15.15
2017-10-16T08:39:36.438Z,15.98
2017-10-16T08:42:04.024Z,14.98
2017-10-16T08:44:31.660Z,17.00
2017-10-16T08:46:59.294Z,15.25
2017-10-16T08:49:26.958Z,14.80
2017-10-16T08:51:54.598Z,14.23
2017-10-16T08:54:22.230Z,14.70
2017-10-16T08:56:49.859Z,13.20
2017-10-16T08:59:17.495Z,14.25
2017-10-16T09:01:45.114Z,12.90
2017-10-16T09:04:12.723Z,14.55
2017-10-16T09:06:40.359Z,13.13
2017-10-16T09:09:07.987Z,12.82
2017-10-16T09:11:35.770Z,12.80
2017-10-16T09:14:03.349Z,13.23
2017-10-16T09:16:30.976Z,12.65
2017-10-16T09:18:58.615Z,13.25
2017-10-16T09:21:26.238Z,11.80
2017-10-16T09:23:53.882Z,11.07
2017-10-16T09:26:21.533Z,12.80
2017-10-16T09:28:49.150Z,12.10
2017-10-16T09:31:16.738Z,11.88
2017-10-16T09:33:44.358Z,12.40
2017-10-16T09:36:12.283Z,11.43
2017-10-16T09:38:39.946Z,11.73
2017-10-16T09:41:07.570Z,11.20
2017-10-16T09:43:35.205Z,10.93
2017-10-16T09:46:03.036Z,11.95
2017-10-16T09:48:30.663Z,11.60
2017-10-16T09:50:58.302Z,10.80
2017-10-16T09:53:25.940Z,10.25
2017-10-16T09:55:53.580Z,10.70
2017-10-16T09:58:21.243Z,10.93
2017-10-16T10:00:48.821Z,10.60
2017-10-16T10:03:16.466Z,9.95
2017-10-16T10:05:44.114Z,10.07
2017-10-16T10:08:11.730Z,9.75
2017-10-16T10:10:39.354Z,9.48
2017-10-16T10:13:06.985Z,9.40
2017-10-16T10:15:34.630Z,9.38
2017-10-16T10:18:03.026Z,10.30
2017-10-16T10:20:30.690Z,9.63
2017-10-16T10:22:58.303Z,9.75
2017-10-16T10:25:25.927Z,9.15
2017-10-16T10:27:53.497Z,9.77
2017-10-16T10:30:21.263Z,8.10
2017-10-16T10:32:48.877Z,7.60
2017-10-16T10:35:16.483Z,8.80
2017-10-16T10:37:44.090Z,9.15
2017-10-16T10:40:11.704Z,7.75
2017-10-16T10:42:39.271Z,7.93
2017-10-16T10:45:06.918Z,8.35
2017-10-16T10:47:34.524Z,8.65
2017-10-16T10:50:02.139Z,9.43
2017-10-16T10:52:29.751Z,8.73
2017-10-16T10:54:57.315Z,7.40
2017-10-16T10:57:25.730Z,7.72
2017-10-16T10:59:53.298Z,7.60
2017-10-16T11:02:20.873Z,8.60
2017-10-16T11:04:48.494Z,7.60
2017-10-16T11:07:16.104Z,7.80
2017-10-16T11:09:43.717Z,7.72
2017-10-16T11:12:11.326Z,8.25
2017-10-16T11:14:39.158Z,8.52
2017-10-16T11:17:06.802Z,8.07
2017-10-16T11:19:34.431Z,8.38
2017-10-16T11:22:02.077Z,9.25
2017-10-16T11:24:29.711Z,8.90
2017-10-16T11:26:57.334Z,7.75
2017-10-16T11:29:25.819Z,8.15
2017-10-16T11:31:53.438Z,8.45
2017-10-16T11:34:21.109Z,8.35
2017-10-16T11:36:48.726Z,9.25
2017-10-16T11:39:16.352Z,8.50
2017-10-16T11:41:43.973Z,9.27
2017-10-16T11:44:11.574Z,10.10
2017-10-16T11:46:39.219Z,8.00
2017-10-16T11:49:06.814Z,8.68
2017-10-16T11:51:34.394Z,9.15
2017-10-16T11:54:02.035Z,9.27
2017-10-16T11:56:29.631Z,10.48
2017-10-16T11:58:57.255Z,9.25
2017-10-16T12:01:24.894Z,9.30
2017-10-16T12:03:52.515Z,9.35
2017-10-16T12:06:20.146Z,9.43
2017-10-16T12:08:47.751Z,9.93
2017-10-16T12:11:15.370Z,10.00
2017-10-16T12:13:43.007Z,10.30
2017-10-16T12:16:10.632Z,10.77
2017-10-16T12:18:38.220Z,9.90
2017-10-16T12:21:05.858Z,10.43
2017-10-16T12:23:33.491Z,10.07
2017-10-16T12:26:01.114Z,9.30
2017-10-16T12:28:28.755Z,9.73
2017-10-16T12:30:56.349Z,11.35
2017-10-16T12:33:23.940Z,10.00
2017-10-16T12:35:51.518Z,9.43
2017-10-16T12:38:19.186Z,10.63
2017-10-16T12:40:46.818Z,8.82
2017-10-16T12:43:14.400Z,10.20
2017-10-16T12:45:41.996Z,10.30
2017-10-16T12:48:09.610Z,9.88
2017-10-16T12:50:37.234Z,9.82
2017-10-16T12:53:04.862Z,10.70
2017-10-16T12:55:32.486Z,10.05
2017-10-16T12:58:00.122Z,10.82
2017-10-16T13:00:27.778Z,10.07
2017-10-16T13:02:56.178Z,10.52
2017-10-16T13:05:28.725Z,10.43
2017-10-16T13:07:56.348Z,11.38
2017-10-16T13:10:23.941Z,10.57
2017-10-16T13:12:51.563Z,10.38
2017-10-16T13:15:19.197Z,10.07
2017-10-16T13:17:46.814Z,9.85
2017-10-16T13:20:14.439Z,9.77
2017-10-16T13:22:42.072Z,9.63
2017-10-16T13:25:09.702Z,9.75
2017-10-16T13:27:37.329Z,9.85
2017-10-16T13:30:04.958Z,10.45
2017-10-16T13:32:33.350Z,10.02
2017-10-16T13:35:00.976Z,10.52
2017-10-16T13:37:28.605Z,11.12
2017-10-16T13:39:56.244Z,10.73
2017-10-16T13:42:23.880Z,10.82
2017-10-16T13:44:52.290Z,11.68
2017-10-16T13:47:19.923Z,10.35
2017-10-16T13:49:48.338Z,10.48
2017-10-16T13:52:15.957Z,10.43
2017-10-16T13:54:43.599Z,10.73
2017-10-16T13:57:11.253Z,10.52
2017-10-16T13:59:38.881Z,11.38
2017-10-16T14:02:06.511Z,10.65
2017-10-16T14:04:35.552Z,11.32
2017-10-16T14:07:03.182Z,10.93
2017-10-16T14:09:30.803Z,12.32
2017-10-16T14:12:11.171Z,11.10
2017-10-16T14:14:38.901Z,10.35
2017-10-16T14:17:06.538Z,11.57
2017-10-16T14:19:34.166Z,13.05
2017-10-16T14:22:01.811Z,11.88
2017-10-16T14:24:29.409Z,12.88
2017-10-16T14:26:57.046Z,13.23
2017-10-16T14:29:25.555Z,12.30
2017-10-16T14:31:53.157Z,11.82
2017-10-16T14:34:20.781Z,12.68
2017-10-16T14:36:48.398Z,13.70
2017-10-16T14:39:16.032Z,34.38
2017-10-16T14:41:43.678Z,47.10
2017-10-16T14:44:11.303Z,50.35
2017-10-16T14:46:38.934Z,26.62
2017-10-16T14:49:06.562Z,45.38
2017-10-16T14:51:34.191Z,50.60
2017-10-16T14:54:01.866Z,48.97
2017-10-16T14:56:30.252Z,75.80
2017-10-16T14:58:57.845Z,40.70
2017-10-16T15:01:25.479Z,32.65
2017-10-16T15:03:53.106Z,25.40
2017-10-16T15:06:20.738Z,31.20
2017-10-16T15:08:48.368Z,17.02
2017-10-16T15:11:16.007Z,17.30
2017-10-16T15:13:43.642Z,16.87
2017-10-16T15:16:11.259Z,16.65
2017-10-16T15:18:38.883Z,15.57
2017-10-16T15:21:07.319Z,15.48
2017-10-16T15:23:35.030Z,14.00
2017-10-16T15:26:03.429Z,14.10
2017-10-16T15:28:31.172Z,15.25
2017-10-16T15:30:59.574Z,14.68
2017-10-16T15:33:27.201Z,15.48
2017-10-16T15:35:54.888Z,15.45
2017-10-16T15:38:22.507Z,14.95
2017-10-16T15:40:50.150Z,15.00
2017-10-16T15:43:17.786Z,14.45
2017-10-16T15:45:45.418Z,16.02
2017-10-16T15:48:13.050Z,15.48
2017-10-16T15:50:40.722Z,17.02
2017-10-16T15:53:08.313Z,14.85
2017-10-16T15:55:35.930Z,16.98
2017-10-16T15:58:03.539Z,14.45
2017-10-16T16:00:34.049Z,15.30
2017-10-16T16:03:01.667Z,16.10
2017-10-16T16:05:29.306Z,16.80
2017-10-16T16:07:56.887Z,18.37
2017-10-16T16:10:24.514Z,16.67
2017-10-16T16:12:52.147Z,17.17
2017-10-16T16:15:19.908Z,19.10
2017-10-16T16:17:47.550Z,17.33
2017-10-16T16:20:15.187Z,15.52
2017-10-16T16:22:42.806Z,17.55
2017-10-16T16:25:10.396Z,17.45
2017-10-16T16:27:38.022Z,17.25
2017-10-16T16:30:05.640Z,19.55
2017-10-16T16:32:33.238Z,18.48
2017-10-16T16:35:00.922Z,20.70
2017-10-16T16:37:28.599Z,20.00
2017-10-16T16:39:56.338Z,19.80
2017-10-16T16:42:24.738Z,21.23
2017-10-16T16:44:52.347Z,22.25
2017-10-16T16:47:19.999Z,22.10
2017-10-16T16:49:47.595Z,24.05
2017-10-16T16:52:15.212Z,24.05
2017-10-16T16:54:42.827Z,30.42
2017-10-16T16:57:10.475Z,26.17
2017-10-16T16:59:38.108Z,24.75
2017-10-16T17:02:05.766Z,23.85
2017-10-16T17:04:33.380Z,26.23
2017-10-16T17:07:01.718Z,24.95
2017-10-16T17:09:29.354Z,24.15
2017-10-16T17:11:56.986Z,24.50
2017-10-16T17:14:25.371Z,25.52
2017-10-16T17:16:53.767Z,26.45
2017-10-16T17:19:21.386Z,24.58
2017-10-16T17:21:49.042Z,23.70
2017-10-16T17:24:16.674Z,24.70
2017-10-16T17:26:44.286Z,28.45
2017-10-16T17:29:12.666Z,27.70
2017-10-16T17:31:40.289Z,26.48
2017-10-16T17:34:08.124Z,25.15
2017-10-16T17:36:35.770Z,28.17
2017-10-16T17:39:03.475Z,25.65
2017-10-16T17:41:31.195Z,26.17
2017-10-16T17:43:58.887Z,27.17
2017-10-16T17:46:26.656Z,25.95
2017-10-16T17:48:54.575Z,28.30
2017-10-16T17:51:22.187Z,26.55
2017-10-16T17:53:49.804Z,25.70
2017-10-16T17:56:17.476Z,24.70
2017-10-16T17:58:45.171Z,24.23
2017-10-16T18:01:12.799Z,25.50
2017-10-16T18:03:40.444Z,25.05
2017-10-16T18:06:08.084Z,26.42
2017-10-16T18:08:35.721Z,29.37
2017-10-16T18:11:03.328Z,29.85
2017-10-16T18:13:31.714Z,42.08
2017-10-16T18:16:00.111Z,49.25
2017-10-16T18:18:27.770Z,46.50
2017-10-16T18:20:55.617Z,39.03
2017-10-16T18:23:24.049Z,29.65
2017-10-16T18:25:51.655Z,27.15
2017-10-16T18:28:19.300Z,25.83
2017-10-16T18:30:46.935Z,25.67
2017-10-16T18:33:14.610Z,24.27
2017-10-16T18:35:42.407Z,26.77
2017-10-16T18:38:10.039Z,24.85
2017-10-16T18:40:37.671Z,24.30
2017-10-16T18:43:05.309Z,24.45
2017-10-16T18:45:32.907Z,25.30
2017-10-16T18:48:00.793Z,24.00
2017-10-16T18:50:28.406Z,24.35
2017-10-16T18:52:55.995Z,24.50
2017-10-16T18:55:23.567Z,24.65
2017-10-16T18:57:51.178Z,24.17
2017-10-16T19:00:18.838Z,24.02
2017-10-16T19:02:46.464Z,24.10
2017-10-16T19:05:14.079Z,23.92
2017-10-16T19:07:41.750Z,23.48
2017-10-16T19:10:09.384Z,22.92
2017-10-16T19:12:37.750Z,23.67
2017-10-16T19:15:06.143Z,22.20
2017-10-16T19:17:33.844Z,21.65
2017-10-16T19:20:01.479Z,23.85
2017-10-16T19:22:29.123Z,24.42
2017-10-16T19:24:57.526Z,22.62
2017-10-16T19:27:25.142Z,25.60
2017-10-16T19:29:52.785Z,23.27
2017-10-16T19:32:20.413Z,25.73
2017-10-16T19:34:48.060Z,25.10
2017-10-16T19:37:15.693Z,25.08
2017-10-16T19:39:43.318Z,22.90
2017-10-16T19:42:10.978Z,23.08
2017-10-16T19:44:38.611Z,22.55
2017-10-16T19:47:06.234Z,22.25
2017-10-16T19:49:33.966Z,23.25
2017-10-16T19:52:01.604Z,23.75
2017-10-16T19:54:29.232Z,21.45
2017-10-16T19:56:56.868Z,21.92
2017-10-16T19:59:24.461Z,21.05
2017-10-16T20:01:52.176Z,23.12
2017-10-16T20:04:19.763Z,22.27
2017-10-16T20:06:47.784Z,22.40
2017-10-16T20:09:15.673Z,22.73
2017-10-16T20:11:43.371Z,22.60
2017-10-16T20:14:11.006Z,21.37
2017-10-16T20:16:39.045Z,21.42
2017-10-16T20:19:06.832Z,20.70
2017-10-16T20:21:34.726Z,21.83
2017-10-16T20:24:02.668Z,19.90
2017-10-16T20:26:30.302Z,20.67
2017-10-16T20:28:57.934Z,22.55
2017-10-16T20:31:25.615Z,20.75
2017-10-16T20:33:54.010Z,20.17
2017-10-16T20:36:21.671Z,20.83
2017-10-16T20:38:49.342Z,23.00
2017-10-16T20:41:16.978Z,23.60
2017-10-16T20:43:45.375Z,26.80
2017-10-16T20:46:13.078Z,25.50
2017-10-16T20:48:40.702Z,24.90
2017-10-16T20:51:08.338Z,25.27
2017-10-16T20:53:37.954Z,24.23
2017-10-16T20:56:06.359Z,26.95
2017-10-16T20:58:34.120Z,25.23
2017-10-16T21:01:01.809Z,26.23
2017-10-16T21:03:29.452Z,23.60
2017-10-16T21:05:57.475Z,21.50
2017-10-16T21:08:26.482Z,23.17
2017-10-16T21:10:54.119Z,22.85
2017-10-16T21:13:21.758Z,22.00
2017-10-16T21:15:49.407Z,21.85
2017-10-16T21:18:17.023Z,23.80
2017-10-16T21:20:44.666Z,21.75
2017-10-16T21:23:12.295Z,22.13
2017-10-16T21:25:39.930Z,22.20
2017-10-16T21:28:07.555Z,22.80
2017-10-16T21:30:35.190Z,21.67
2017-10-16T21:33:02.769Z,22.75
2017-10-16T21:35:30.362Z,22.05
2017-10-16T21:37:57.994Z,22.75
2017-10-16T21:40:25.796Z,23.70
2017-10-16T21:42:53.422Z,23.90
2017-10-16T21:45:21.044Z,22.55
2017-10-16T21:47:48.666Z,23.45
2017-10-16T21:50:16.257Z,22.98
2017-10-16T21:52:43.879Z,24.15
2017-10-16T21:55:11.498Z,23.98
2017-10-16T21:57:39.083Z,22.20
2017-10-16T22:00:06.693Z,23.17
2017-10-16T22:02:34.332Z,22.42
2017-10-16T22:05:01.975Z,21.67
2017-10-16T22:07:29.616Z,21.50
2017-10-16T22:09:57.215Z,22.48
2017-10-16T22:12:24.858Z,22.00
2017-10-16T22:14:52.484Z,21.98
2017-10-16T22:17:20.126Z,24.20
2017-10-16T22:19:47.747Z,21.40
2017-10-16T22:22:15.434Z,22.77
2017-10-16T22:24:43.967Z,21.50
2017-10-16T22:27:11.599Z,21.70
2017-10-16T22:29:39.255Z,22.13
2017-10-16T22:32:06.891Z,23.38
2017-10-16T22:34:34.780Z,22.52
2017-10-16T22:37:02.408Z,23.90
2017-10-16T22:39:31.223Z,23.25
2017-10-16T22:41:58.874Z,24.50
2017-10-16T22:44:26.546Z,21.05
2017-10-16T22:46:54.182Z,22.50
2017-10-16T22:49:21.815Z,22.20
2017-10-16T22:51:50.198Z,22.90
2017-10-16T22:54:29.589Z,22.90
2017-10-16T22:56:57.179Z,22.92
2017-10-16T22:59:24.794Z,21.73
2017-10-16T23:01:52.418Z,22.67
2017-10-16T23:04:20.256Z,22.00
2017-10-16T23:06:47.890Z,20.88
2017-10-16T23:09:15.519Z,22.45
2017-10-16T23:11:43.143Z,20.77
2017-10-16T23:14:10.779Z,21.08
2017-10-16T23:16:38.462Z,21.10
2017-10-16T23:19:06.060Z,21.95
2017-10-16T23:21:33.695Z,22.00
2017-10-16T23:24:01.329Z,22.67
2017-10-16T23:26:28.966Z,22.02
2017-10-16T23:28:57.608Z,21.55
2017-10-16T23:31:25.247Z,22.05
2017-10-16T23:33:52.870Z,20.58
2017-10-16T23:36:20.596Z,22.80
2017-10-16T23:38:48.215Z,21.05
2017-10-16T23:41:15.853Z,21.70
2017-10-16T23:43:43.432Z,23.20
2017-10-16T23:46:11.067Z,21.65
2017-10-16T23:48:38.687Z,22.45
2017-10-16T23:51:06.331Z,21.42
2017-10-16T23:53:33.966Z,20.98
2017-10-16T23:56:02.330Z,19.67
2017-10-16T23:58:29.963Z,19.50
